44WI weather

Stoiber Airport
Spencer, Wisconsin, United States

Public forecast

Using degrees Fahrenheit for public forecast. Weather courtesy of forecast.io.

METAR (pilot weather report)

Closest report is Marshfield Municipal Airport, 11.7 nm (21.6 km) SE. Retrieved 2019/08/21 14:54 UTC (50 minutes ago):

KMFI 211454Z AUTO 34011KT 10SM CLR 21/14 A3002 RMK AO2 SLP162 T02110139 51011

TAF (pilot weather forecast)

Closest forecast is Central Wisconsin Airport, 30.6 nm (56.7 km) E. Retrieved 2019/08/21 12:22 UTC (3 hours ago):

TAF KCWA 211120Z 2112/2212 34006KT P6SM SCT007 FM211500 32008KT P6SM SCT035 FM211700 32008G15KT P6SM SCT070 FM212200 31005KT P6SM SKC FM220400 35003KT P6SM SCT120